sensor_id;sensor_type;location;lat;lon;timestamp;temperature;humidity
2453;DHT22;63678;47.994;7.854;2023-12-20T00:00:28;8.40;99.90
2453;DHT22;63678;47.994;7.854;2023-12-20T00:03:00;8.40;99.90
2453;DHT22;63678;47.994;7.854;2023-12-20T00:05:32;8.40;99.90
2453;DHT22;63678;47.994;7.854;2023-12-20T00:08:05;8.40;99.90
2453;DHT22;63678;47.994;7.854;2023-12-20T00:10:38;8.40;99.90
2453;DHT22;63678;47.994;7.854;2023-12-20T00:13:10;8.30;99.90
2453;DHT22;63678;47.994;7.854;2023-12-20T00:15:43;8.30;99.90
2453;DHT22;63678;47.994;7.854;2023-12-20T00:18:15;8.30;99.90
2453;DHT22;63678;47.994;7.854;2023-12-20T00:20:47;8.30;99.90
2453;DHT22;63678;47.994;7.854;2023-12-20T00:23:19;8.40;99.90
2453;DHT22;63678;47.994;7.854;2023-12-20T00:25:52;8.40;99.90
2453;DHT22;63678;47.994;7.854;2023-12-20T00:28:24;8.40;99.90
2453;DHT22;63678;47.994;7.854;2023-12-20T00:30:56;8.40;99.90
2453;DHT22;63678;47.994;7.854;2023-12-20T00:33:29;8.30;99.90
2453;DHT22;63678;47.994;7.854;2023-12-20T00:36:01;8.40;99.90
2453;DHT22;63678;47.994;7.854;2023-12-20T00:38:34;8.40;99.90
2453;DHT22;63678;47.994;7.854;2023-12-20T00:41:06;8.40;99.90
2453;DHT22;63678;47.994;7.854;2023-12-20T00:43:38;8.30;99.90
2453;DHT22;63678;47.994;7.854;2023-12-20T00:46:11;8.30;99.90
2453;DHT22;63678;47.994;7.854;2023-12-20T00:48:43;8.30;99.90
2453;DHT22;63678;47.994;7.854;2023-12-20T00:51:17;8.10;99.90
2453;DHT22;63678;47.994;7.854;2023-12-20T00:53:50;8.10;99.90
2453;DHT22;63678;47.994;7.854;2023-12-20T00:56:26;7.90;99.90
2453;DHT22;63678;47.994;7.854;2023-12-20T00:58:59;7.90;99.90
2453;DHT22;63678;47.994;7.854;2023-12-20T01:01:31;7.70;99.90
2453;DHT22;63678;47.994;7.854;2023-12-20T01:04:05;7.60;99.90
2453;DHT22;63678;47.994;7.854;2023-12-20T01:06:38;7.50;99.90
2453;DHT22;63678;47.994;7.854;2023-12-20T01:09:10;7.50;99.90
2453;DHT22;63678;47.994;7.854;2023-12-20T01:11:47;7.50;99.90
2453;DHT22;63678;47.994;7.854;2023-12-20T01:14:19;7.50;99.90
2453;DHT22;63678;47.994;7.854;2023-12-20T01:16:52;7.40;99.90
2453;DHT22;63678;47.994;7.854;2023-12-20T01:19:25;7.40;99.90
2453;DHT22;63678;47.994;7.854;2023-12-20T01:21:59;7.40;99.90
2453;DHT22;63678;47.994;7.854;2023-12-20T01:24:31;7.40;99.90
2453;DHT22;63678;47.994;7.854;2023-12-20T01:29:36;7.40;99.90
2453;DHT22;63678;47.994;7.854;2023-12-20T01:32:09;7.40;99.90
2453;DHT22;63678;47.994;7.854;2023-12-20T01:34:41;7.30;99.90
2453;DHT22;63678;47.994;7.854;2023-12-20T01:37:14;7.40;99.90
2453;DHT22;63678;47.994;7.854;2023-12-20T01:44:53;7.30;99.90
2453;DHT22;63678;47.994;7.854;2023-12-20T01:47:26;7.30;99.90
2453;DHT22;63678;47.994;7.854;2023-12-20T01:49:59;7.30;99.90
2453;DHT22;63678;47.994;7.854;2023-12-20T01:52:32;7.30;99.90
2453;DHT22;63678;47.994;7.854;2023-12-20T01:55:06;7.30;99.90
2453;DHT22;63678;47.994;7.854;2023-12-20T01:57:45;7.30;99.90
2453;DHT22;63678;47.994;7.854;2023-12-20T02:00:19;7.30;99.90
2453;DHT22;63678;47.994;7.854;2023-12-20T02:03:00;7.30;99.90
2453;DHT22;63678;47.994;7.854;2023-12-20T02:05:35;7.30;99.90
2453;DHT22;63678;47.994;7.854;2023-12-20T02:08:08;7.30;99.90
2453;DHT22;63678;47.994;7.854;2023-12-20T02:10:41;7.30;99.90
2453;DHT22;63678;47.994;7.854;2023-12-20T02:13:15;7.30;99.90
2453;DHT22;63678;47.994;7.854;2023-12-20T02:15:47;7.30;99.90
2453;DHT22;63678;47.994;7.854;2023-12-20T02:18:19;7.40;99.90
2453;DHT22;63678;47.994;7.854;2023-12-20T02:20:52;7.40;99.90
2453;DHT22;63678;47.994;7.854;2023-12-20T02:23:25;7.40;99.90
2453;DHT22;63678;47.994;7.854;2023-12-20T02:25:57;7.30;99.90
2453;DHT22;63678;47.994;7.854;2023-12-20T02:28:31;7.30;99.90
2453;DHT22;63678;47.994;7.854;2023-12-20T02:31:25;7.30;99.90
2453;DHT22;63678;47.994;7.854;2023-12-20T02:33:57;7.30;99.90
2453;DHT22;63678;47.994;7.854;2023-12-20T02:36:30;7.30;99.90
2453;DHT22;63678;47.994;7.854;2023-12-20T02:39:02;7.20;99.90
2453;DHT22;63678;47.994;7.854;2023-12-20T02:41:34;7.20;99.90
2453;DHT22;63678;47.994;7.854;2023-12-20T02:44:07;7.20;99.90
2453;DHT22;63678;47.994;7.854;2023-12-20T02:46:39;7.20;99.90
2453;DHT22;63678;47.994;7.854;2023-12-20T02:49:12;7.20;99.90
2453;DHT22;63678;47.994;7.854;2023-12-20T02:51:44;7.20;99.90
2453;DHT22;63678;47.994;7.854;2023-12-20T02:54:17;7.10;99.90
2453;DHT22;63678;47.994;7.854;2023-12-20T02:56:49;7.10;99.90
2453;DHT22;63678;47.994;7.854;2023-12-20T02:59:21;7.10;99.90
2453;DHT22;63678;47.994;7.854;2023-12-20T03:01:54;7.10;99.90
2453;DHT22;63678;47.994;7.854;2023-12-20T03:04:26;7.10;99.90
2453;DHT22;63678;47.994;7.854;2023-12-20T03:06:59;7.10;99.90
2453;DHT22;63678;47.994;7.854;2023-12-20T03:09:31;7.10;99.90
2453;DHT22;63678;47.994;7.854;2023-12-20T03:12:24;7.10;99.90
2453;DHT22;63678;47.994;7.854;2023-12-20T03:14:57;7.10;99.90
2453;DHT22;63678;47.994;7.854;2023-12-20T03:17:30;7.10;99.90
2453;DHT22;63678;47.994;7.854;2023-12-20T03:20:02;7.10;99.90
2453;DHT22;63678;47.994;7.854;2023-12-20T03:22:35;7.10;99.90
2453;DHT22;63678;47.994;7.854;2023-12-20T03:25:07;7.10;99.90
2453;DHT22;63678;47.994;7.854;2023-12-20T03:30:13;7.10;99.90
2453;DHT22;63678;47.994;7.854;2023-12-20T03:32:47;7.00;99.90
2453;DHT22;63678;47.994;7.854;2023-12-20T03:35:20;7.10;99.90
2453;DHT22;63678;47.994;7.854;2023-12-20T03:37:53;7.70;99.90
2453;DHT22;63678;47.994;7.854;2023-12-20T03:40:25;7.00;99.90
2453;DHT22;63678;47.994;7.854;2023-12-20T03:42:57;7.00;99.90
2453;DHT22;63678;47.994;7.854;2023-12-20T03:45:30;7.00;99.90
2453;DHT22;63678;47.994;7.854;2023-12-20T03:48:24;7.00;99.90
2453;DHT22;63678;47.994;7.854;2023-12-20T03:50:57;7.00;99.90
2453;DHT22;63678;47.994;7.854;2023-12-20T03:53:29;7.00;99.90
2453;DHT22;63678;47.994;7.854;2023-12-20T03:58:34;7.00;99.90
2453;DHT22;63678;47.994;7.854;2023-12-20T04:01:10;7.00;99.90
2453;DHT22;63678;47.994;7.854;2023-12-20T04:03:45;7.00;99.90
2453;DHT22;63678;47.994;7.854;2023-12-20T04:06:18;7.00;99.90
2453;DHT22;63678;47.994;7.854;2023-12-20T04:08:50;7.00;99.90
2453;DHT22;63678;47.994;7.854;2023-12-20T04:11:22;7.00;99.90
2453;DHT22;63678;47.994;7.854;2023-12-20T04:13:55;7.00;99.90
2453;DHT22;63678;47.994;7.854;2023-12-20T04:19:00;7.10;99.90
2453;DHT22;63678;47.994;7.854;2023-12-20T04:21:33;7.10;99.90
2453;DHT22;63678;47.994;7.854;2023-12-20T04:24:05;7.10;99.90
2453;DHT22;63678;47.994;7.854;2023-12-20T04:26:37;7.10;99.90
2453;DHT22;63678;47.994;7.854;2023-12-20T04:29:09;7.10;99.90
2453;DHT22;63678;47.994;7.854;2023-12-20T04:31:42;7.10;99.90
2453;DHT22;63678;47.994;7.854;2023-12-20T04:34:14;7.10;99.90
2453;DHT22;63678;47.994;7.854;2023-12-20T04:36:52;7.10;99.90
2453;DHT22;63678;47.994;7.854;2023-12-20T04:39:26;7.20;99.90
2453;DHT22;63678;47.994;7.854;2023-12-20T04:41:59;7.20;99.90
2453;DHT22;63678;47.994;7.854;2023-12-20T04:44:34;7.20;99.90
2453;DHT22;63678;47.994;7.854;2023-12-20T04:47:06;7.20;99.90
2453;DHT22;63678;47.994;7.854;2023-12-20T04:49:39;7.20;99.90
2453;DHT22;63678;47.994;7.854;2023-12-20T04:52:11;7.20;99.90
2453;DHT22;63678;47.994;7.854;2023-12-20T04:54:43;7.20;99.90
2453;DHT22;63678;47.994;7.854;2023-12-20T04:57:16;7.20;99.90
2453;DHT22;63678;47.994;7.854;2023-12-20T04:59:48;7.20;99.90
2453;DHT22;63678;47.994;7.854;2023-12-20T05:02:20;7.20;99.90
2453;DHT22;63678;47.994;7.854;2023-12-20T05:04:52;7.20;99.90
2453;DHT22;63678;47.994;7.854;2023-12-20T05:07:27;7.20;99.90
2453;DHT22;63678;47.994;7.854;2023-12-20T05:09:59;7.20;99.90
2453;DHT22;63678;47.994;7.854;2023-12-20T05:12:31;7.20;99.90
2453;DHT22;63678;47.994;7.854;2023-12-20T05:15:05;7.30;99.90
2453;DHT22;63678;47.994;7.854;2023-12-20T05:17:38;7.20;99.90
2453;DHT22;63678;47.994;7.854;2023-12-20T05:20:10;7.20;99.90
2453;DHT22;63678;47.994;7.854;2023-12-20T05:22:43;7.30;99.90
2453;DHT22;63678;47.994;7.854;2023-12-20T05:25:16;7.40;99.90
2453;DHT22;63678;47.994;7.854;2023-12-20T05:27:48;7.30;99.90
2453;DHT22;63678;47.994;7.854;2023-12-20T05:32:54;7.40;99.90
2453;DHT22;63678;47.994;7.854;2023-12-20T05:35:26;7.40;99.90
2453;DHT22;63678;47.994;7.854;2023-12-20T05:40:31;7.40;99.90
2453;DHT22;63678;47.994;7.854;2023-12-20T05:43:04;7.40;99.90
2453;DHT22;63678;47.994;7.854;2023-12-20T05:50:41;7.40;99.90
2453;DHT22;63678;47.994;7.854;2023-12-20T05:53:14;7.40;99.90
2453;DHT22;63678;47.994;7.854;2023-12-20T05:55:46;7.40;99.90
2453;DHT22;63678;47.994;7.854;2023-12-20T05:58:18;7.40;99.90
2453;DHT22;63678;47.994;7.854;2023-12-20T06:00:51;7.40;99.90
2453;DHT22;63678;47.994;7.854;2023-12-20T06:03:23;7.40;99.90
2453;DHT22;63678;47.994;7.854;2023-12-20T06:05:55;7.40;99.90
2453;DHT22;63678;47.994;7.854;2023-12-20T06:08:44;7.40;99.90
2453;DHT22;63678;47.994;7.854;2023-12-20T06:11:16;7.40;99.90
2453;DHT22;63678;47.994;7.854;2023-12-20T06:13:48;7.40;99.90
2453;DHT22;63678;47.994;7.854;2023-12-20T06:16:23;7.50;99.90
2453;DHT22;63678;47.994;7.854;2023-12-20T06:18:56;7.50;99.90
2453;DHT22;63678;47.994;7.854;2023-12-20T06:21:28;7.50;99.90
2453;DHT22;63678;47.994;7.854;2023-12-20T06:29:06;7.50;99.90
2453;DHT22;63678;47.994;7.854;2023-12-20T06:31:38;7.50;99.90
2453;DHT22;63678;47.994;7.854;2023-12-20T06:34:11;7.50;99.90
2453;DHT22;63678;47.994;7.854;2023-12-20T06:36:43;7.50;99.90
2453;DHT22;63678;47.994;7.854;2023-12-20T06:39:15;7.60;99.90
2453;DHT22;63678;47.994;7.854;2023-12-20T06:41:48;7.60;99.90
2453;DHT22;63678;47.994;7.854;2023-12-20T06:44:20;7.60;99.90
2453;DHT22;63678;47.994;7.854;2023-12-20T06:46:52;7.60;99.90
2453;DHT22;63678;47.994;7.854;2023-12-20T06:49:25;7.60;99.90
2453;DHT22;63678;47.994;7.854;2023-12-20T06:51:57;7.60;99.90
2453;DHT22;63678;47.994;7.854;2023-12-20T06:54:29;7.50;99.90
2453;DHT22;63678;47.994;7.854;2023-12-20T06:57:01;7.70;99.90
2453;DHT22;63678;47.994;7.854;2023-12-20T06:59:38;7.70;99.90
2453;DHT22;63678;47.994;7.854;2023-12-20T07:02:12;7.60;99.90
2453;DHT22;63678;47.994;7.854;2023-12-20T07:04:46;7.60;99.90
2453;DHT22;63678;47.994;7.854;2023-12-20T07:07:18;7.70;99.90
2453;DHT22;63678;47.994;7.854;2023-12-20T07:12:23;8.80;99.90
2453;DHT22;63678;47.994;7.854;2023-12-20T07:14:57;7.60;99.90
2453;DHT22;63678;47.994;7.854;2023-12-20T07:17:32;7.70;99.90
2453;DHT22;63678;47.994;7.854;2023-12-20T07:23:50;7.50;99.90
2453;DHT22;63678;47.994;7.854;2023-12-20T07:26:53;7.50;99.90
2453;DHT22;63678;47.994;7.854;2023-12-20T07:29:25;7.60;99.90
2453;DHT22;63678;47.994;7.854;2023-12-20T07:34:30;7.70;99.90
2453;DHT22;63678;47.994;7.854;2023-12-20T07:37:06;7.70;99.90
2453;DHT22;63678;47.994;7.854;2023-12-20T07:39:39;7.60;99.90
2453;DHT22;63678;47.994;7.854;2023-12-20T07:42:12;7.60;99.90
2453;DHT22;63678;47.994;7.854;2023-12-20T07:44:45;7.50;99.90
2453;DHT22;63678;47.994;7.854;2023-12-20T07:47:17;7.50;99.90
2453;DHT22;63678;47.994;7.854;2023-12-20T07:49:53;7.60;99.90
2453;DHT22;63678;47.994;7.854;2023-12-20T07:52:26;7.60;99.90
2453;DHT22;63678;47.994;7.854;2023-12-20T07:54:58;7.60;99.90
2453;DHT22;63678;47.994;7.854;2023-12-20T07:57:30;7.60;99.90
2453;DHT22;63678;47.994;7.854;2023-12-20T08:00:03;7.70;99.90
2453;DHT22;63678;47.994;7.854;2023-12-20T08:02:36;7.70;99.90
2453;DHT22;63678;47.994;7.854;2023-12-20T08:05:08;7.70;99.90
2453;DHT22;63678;47.994;7.854;2023-12-20T08:07:40;7.70;99.90
2453;DHT22;63678;47.994;7.854;2023-12-20T08:10:13;7.60;99.90
2453;DHT22;63678;47.994;7.854;2023-12-20T08:12:45;7.60;99.90
2453;DHT22;63678;47.994;7.854;2023-12-20T08:15:17;7.60;99.90
2453;DHT22;63678;47.994;7.854;2023-12-20T08:17:49;7.50;99.90
2453;DHT22;63678;47.994;7.854;2023-12-20T08:20:22;7.60;99.90
2453;DHT22;63678;47.994;7.854;2023-12-20T08:23:10;7.60;99.90
2453;DHT22;63678;47.994;7.854;2023-12-20T08:30:48;7.70;99.90
2453;DHT22;63678;47.994;7.854;2023-12-20T08:33:20;7.60;99.90
2453;DHT22;63678;47.994;7.854;2023-12-20T08:35:52;7.70;99.90
2453;DHT22;63678;47.994;7.854;2023-12-20T08:38:25;7.70;99.90
2453;DHT22;63678;47.994;7.854;2023-12-20T08:40:57;7.70;99.90
2453;DHT22;63678;47.994;7.854;2023-12-20T08:48:35;7.80;99.90
2453;DHT22;63678;47.994;7.854;2023-12-20T08:51:07;7.80;99.90
2453;DHT22;63678;47.994;7.854;2023-12-20T08:56:14;8.00;99.90
2453;DHT22;63678;47.994;7.854;2023-12-20T08:58:46;8.00;99.90
2453;DHT22;63678;47.994;7.854;2023-12-20T09:01:19;8.10;99.90
2453;DHT22;63678;47.994;7.854;2023-12-20T09:03:51;8.10;99.90
2453;DHT22;63678;47.994;7.854;2023-12-20T09:06:24;8.10;99.90
2453;DHT22;63678;47.994;7.854;2023-12-20T09:08:56;8.10;99.90
2453;DHT22;63678;47.994;7.854;2023-12-20T09:11:29;8.10;99.90
2453;DHT22;63678;47.994;7.854;2023-12-20T09:14:01;8.10;99.90
2453;DHT22;63678;47.994;7.854;2023-12-20T09:16:35;8.20;99.90
2453;DHT22;63678;47.994;7.854;2023-12-20T09:19:07;8.20;99.90
2453;DHT22;63678;47.994;7.854;2023-12-20T09:26:45;8.00;99.90
2453;DHT22;63678;47.994;7.854;2023-12-20T09:29:17;8.10;99.90
2453;DHT22;63678;47.994;7.854;2023-12-20T09:31:50;8.10;99.90
2453;DHT22;63678;47.994;7.854;2023-12-20T09:34:23;8.10;99.90
2453;DHT22;63678;47.994;7.854;2023-12-20T09:36:57;7.90;99.90
2453;DHT22;63678;47.994;7.854;2023-12-20T09:42:04;7.90;99.90
2453;DHT22;63678;47.994;7.854;2023-12-20T09:44:37;7.90;99.90
2453;DHT22;63678;47.994;7.854;2023-12-20T09:47:14;7.80;99.90
2453;DHT22;63678;47.994;7.854;2023-12-20T09:49:47;7.80;99.90
2453;DHT22;63678;47.994;7.854;2023-12-20T09:52:22;7.80;99.90
2453;DHT22;63678;47.994;7.854;2023-12-20T09:54:56;7.80;99.90
2453;DHT22;63678;47.994;7.854;2023-12-20T09:57:29;7.90;99.90
2453;DHT22;63678;47.994;7.854;2023-12-20T10:00:02;7.90;99.90
2453;DHT22;63678;47.994;7.854;2023-12-20T10:02:50;8.00;99.90
2453;DHT22;63678;47.994;7.854;2023-12-20T10:05:29;8.00;99.90
2453;DHT22;63678;47.994;7.854;2023-12-20T10:08:02;7.90;99.90
2453;DHT22;63678;47.994;7.854;2023-12-20T10:10:35;8.00;99.90
2453;DHT22;63678;47.994;7.854;2023-12-20T10:21:10;7.90;99.90
2453;DHT22;63678;47.994;7.854;2023-12-20T10:26:24;8.20;99.90
2453;DHT22;63678;47.994;7.854;2023-12-20T10:29:00;8.10;99.90
2453;DHT22;63678;47.994;7.854;2023-12-20T10:31:34;8.00;99.90
2453;DHT22;63678;47.994;7.854;2023-12-20T10:34:06;8.10;99.90
2453;DHT22;63678;47.994;7.854;2023-12-20T10:36:39;8.10;99.90
2453;DHT22;63678;47.994;7.854;2023-12-20T10:39:13;8.20;99.90
2453;DHT22;63678;47.994;7.854;2023-12-20T10:41:47;8.10;99.90
2453;DHT22;63678;47.994;7.854;2023-12-20T10:44:20;7.90;99.90
2453;DHT22;63678;47.994;7.854;2023-12-20T10:49:30;7.80;99.90
2453;DHT22;63678;47.994;7.854;2023-12-20T10:52:05;7.90;99.90
2453;DHT22;63678;47.994;7.854;2023-12-20T10:54:40;8.00;99.90
2453;DHT22;63678;47.994;7.854;2023-12-20T10:57:13;8.10;99.90
2453;DHT22;63678;47.994;7.854;2023-12-20T10:59:45;8.10;99.90
2453;DHT22;63678;47.994;7.854;2023-12-20T11:02:22;8.10;99.90
2453;DHT22;63678;47.994;7.854;2023-12-20T11:07:59;8.20;99.90
2453;DHT22;63678;47.994;7.854;2023-12-20T11:10:48;8.30;99.90
2453;DHT22;63678;47.994;7.854;2023-12-20T11:13:28;8.30;99.90
2453;DHT22;63678;47.994;7.854;2023-12-20T11:16:05;8.30;99.90
2453;DHT22;63678;47.994;7.854;2023-12-20T11:18:50;8.20;99.90
2453;DHT22;63678;47.994;7.854;2023-12-20T11:21:24;8.10;99.90
2453;DHT22;63678;47.994;7.854;2023-12-20T11:23:57;8.30;99.90
2453;DHT22;63678;47.994;7.854;2023-12-20T11:26:31;8.70;99.90
2453;DHT22;63678;47.994;7.854;2023-12-20T11:29:35;9.30;99.90
2453;DHT22;63678;47.994;7.854;2023-12-20T11:32:28;9.50;99.90
2453;DHT22;63678;47.994;7.854;2023-12-20T11:35:18;9.90;99.90
2453;DHT22;63678;47.994;7.854;2023-12-20T11:37:57;10.30;99.90
2453;DHT22;63678;47.994;7.854;2023-12-20T11:40:33;10.40;99.90
2453;DHT22;63678;47.994;7.854;2023-12-20T11:45:49;10.30;99.90
2453;DHT22;63678;47.994;7.854;2023-12-20T11:48:23;10.30;99.90
2453;DHT22;63678;47.994;7.854;2023-12-20T11:50:55;10.40;99.90
2453;DHT22;63678;47.994;7.854;2023-12-20T11:53:28;10.50;99.90
2453;DHT22;63678;47.994;7.854;2023-12-20T11:56:00;10.50;99.90
2453;DHT22;63678;47.994;7.854;2023-12-20T11:58:36;10.60;99.90
2453;DHT22;63678;47.994;7.854;2023-12-20T12:01:10;10.60;99.90
2453;DHT22;63678;47.994;7.854;2023-12-20T12:03:45;10.50;99.90
2453;DHT22;63678;47.994;7.854;2023-12-20T12:06:18;10.70;99.90
2453;DHT22;63678;47.994;7.854;2023-12-20T12:11:24;10.20;99.90
2453;DHT22;63678;47.994;7.854;2023-12-20T12:13:56;10.10;99.90
2453;DHT22;63678;47.994;7.854;2023-12-20T12:16:29;10.20;99.90
2453;DHT22;63678;47.994;7.854;2023-12-20T12:19:02;10.50;99.90
2453;DHT22;63678;47.994;7.854;2023-12-20T12:21:36;10.40;99.90
2453;DHT22;63678;47.994;7.854;2023-12-20T12:24:09;10.50;99.90
2453;DHT22;63678;47.994;7.854;2023-12-20T12:26:50;10.30;99.90
2453;DHT22;63678;47.994;7.854;2023-12-20T12:34:31;10.10;99.90
2453;DHT22;63678;47.994;7.854;2023-12-20T12:39:38;10.20;99.90
2453;DHT22;63678;47.994;7.854;2023-12-20T12:42:12;10.30;99.90
2453;DHT22;63678;47.994;7.854;2023-12-20T12:44:44;10.00;99.90
2453;DHT22;63678;47.994;7.854;2023-12-20T12:47:17;9.80;99.90
2453;DHT22;63678;47.994;7.854;2023-12-20T12:50:05;9.80;99.90
2453;DHT22;63678;47.994;7.854;2023-12-20T12:52:38;9.50;99.90
2453;DHT22;63678;47.994;7.854;2023-12-20T13:00:16;9.40;99.90
2453;DHT22;63678;47.994;7.854;2023-12-20T13:05:39;9.40;99.90
2453;DHT22;63678;47.994;7.854;2023-12-20T13:08:16;9.20;99.90
2453;DHT22;63678;47.994;7.854;2023-12-20T13:10:48;9.10;99.90
2453;DHT22;63678;47.994;7.854;2023-12-20T13:18:27;8.90;99.90
2453;DHT22;63678;47.994;7.854;2023-12-20T13:20:59;8.80;99.90
2453;DHT22;63678;47.994;7.854;2023-12-20T13:23:32;8.80;99.90
2453;DHT22;63678;47.994;7.854;2023-12-20T13:38:48;8.70;99.90
2453;DHT22;63678;47.994;7.854;2023-12-20T13:41:21;8.70;99.90
2453;DHT22;63678;47.994;7.854;2023-12-20T13:43:53;8.70;99.90
2453;DHT22;63678;47.994;7.854;2023-12-20T13:48:59;8.70;99.90
2453;DHT22;63678;47.994;7.854;2023-12-20T13:51:32;8.70;99.90
2453;DHT22;63678;47.994;7.854;2023-12-20T13:54:04;8.60;99.90
2453;DHT22;63678;47.994;7.854;2023-12-20T13:59:23;8.70;99.90
2453;DHT22;63678;47.994;7.854;2023-12-20T14:01:55;8.70;99.90
2453;DHT22;63678;47.994;7.854;2023-12-20T14:04:29;8.70;99.90
2453;DHT22;63678;47.994;7.854;2023-12-20T14:07:14;8.80;99.90
2453;DHT22;63678;47.994;7.854;2023-12-20T14:09:47;8.70;99.90
2453;DHT22;63678;47.994;7.854;2023-12-20T14:12:19;8.80;99.90
2453;DHT22;63678;47.994;7.854;2023-12-20T14:14:52;8.60;99.90
2453;DHT22;63678;47.994;7.854;2023-12-20T14:17:24;8.60;99.90
2453;DHT22;63678;47.994;7.854;2023-12-20T14:22:29;8.60;99.90
2453;DHT22;63678;47.994;7.854;2023-12-20T14:25:02;8.30;99.90
2453;DHT22;63678;47.994;7.854;2023-12-20T14:27:35;8.20;99.90
2453;DHT22;63678;47.994;7.854;2023-12-20T14:30:08;8.20;99.90
2453;DHT22;63678;47.994;7.854;2023-12-20T14:32:40;8.10;99.90
2453;DHT22;63678;47.994;7.854;2023-12-20T14:42:52;8.00;99.90
2453;DHT22;63678;47.994;7.854;2023-12-20T14:45:24;8.00;99.90
2453;DHT22;63678;47.994;7.854;2023-12-20T14:47:57;8.00;99.90
2453;DHT22;63678;47.994;7.854;2023-12-20T14:55:36;7.90;99.90
2453;DHT22;63678;47.994;7.854;2023-12-20T14:58:08;7.90;99.90
2453;DHT22;63678;47.994;7.854;2023-12-20T15:00:41;7.80;99.90
2453;DHT22;63678;47.994;7.854;2023-12-20T15:03:14;7.80;99.90
2453;DHT22;63678;47.994;7.854;2023-12-20T15:08:22;7.70;99.90
2453;DHT22;63678;47.994;7.854;2023-12-20T15:10:54;7.60;99.90
2453;DHT22;63678;47.994;7.854;2023-12-20T15:13:26;7.60;99.90
2453;DHT22;63678;47.994;7.854;2023-12-20T15:15:59;7.60;99.90
2453;DHT22;63678;47.994;7.854;2023-12-20T15:18:31;7.50;99.90
2453;DHT22;63678;47.994;7.854;2023-12-20T15:21:04;7.40;99.90
2453;DHT22;63678;47.994;7.854;2023-12-20T15:26:10;7.20;99.90
2453;DHT22;63678;47.994;7.854;2023-12-20T15:33:48;7.10;99.90
2453;DHT22;63678;47.994;7.854;2023-12-20T15:36:21;7.20;99.90
2453;DHT22;63678;47.994;7.854;2023-12-20T15:38:54;7.20;99.90
2453;DHT22;63678;47.994;7.854;2023-12-20T15:46:31;7.10;99.90
2453;DHT22;63678;47.994;7.854;2023-12-20T15:49:04;7.00;99.90
2453;DHT22;63678;47.994;7.854;2023-12-20T15:51:37;7.00;99.90
2453;DHT22;63678;47.994;7.854;2023-12-20T15:54:09;7.10;99.90
2453;DHT22;63678;47.994;7.854;2023-12-20T15:56:41;7.00;99.90
2453;DHT22;63678;47.994;7.854;2023-12-20T15:59:17;7.00;99.90
2453;DHT22;63678;47.994;7.854;2023-12-20T16:01:50;6.90;99.90
2453;DHT22;63678;47.994;7.854;2023-12-20T16:04:25;5.40;99.90
2453;DHT22;63678;47.994;7.854;2023-12-20T16:06:57;6.90;99.90
2453;DHT22;63678;47.994;7.854;2023-12-20T16:09:30;6.80;99.90
2453;DHT22;63678;47.994;7.854;2023-12-20T16:12:03;6.90;99.90
2453;DHT22;63678;47.994;7.854;2023-12-20T16:17:09;6.80;99.90
2453;DHT22;63678;47.994;7.854;2023-12-20T16:22:15;6.70;99.90
2453;DHT22;63678;47.994;7.854;2023-12-20T16:24:48;6.70;99.90
2453;DHT22;63678;47.994;7.854;2023-12-20T16:29:53;6.80;99.90
2453;DHT22;63678;47.994;7.854;2023-12-20T16:32:26;6.70;99.90
2453;DHT22;63678;47.994;7.854;2023-12-20T16:34:58;6.70;99.90
2453;DHT22;63678;47.994;7.854;2023-12-20T16:40:08;6.70;99.90
2453;DHT22;63678;47.994;7.854;2023-12-20T16:42:40;6.60;99.90
2453;DHT22;63678;47.994;7.854;2023-12-20T16:45:13;6.60;99.90
2453;DHT22;63678;47.994;7.854;2023-12-20T16:50:19;6.60;99.90
2453;DHT22;63678;47.994;7.854;2023-12-20T16:55:25;6.60;99.90
2453;DHT22;63678;47.994;7.854;2023-12-20T16:57:57;6.60;99.90
2453;DHT22;63678;47.994;7.854;2023-12-20T17:03:03;6.50;99.90
2453;DHT22;63678;47.994;7.854;2023-12-20T17:05:36;6.60;99.90
2453;DHT22;63678;47.994;7.854;2023-12-20T17:08:08;6.60;99.90
2453;DHT22;63678;47.994;7.854;2023-12-20T17:10:41;6.70;99.90
2453;DHT22;63678;47.994;7.854;2023-12-20T17:13:13;6.60;99.90
2453;DHT22;63678;47.994;7.854;2023-12-20T17:20:52;6.40;99.90
2453;DHT22;63678;47.994;7.854;2023-12-20T17:23:24;6.40;99.90
2453;DHT22;63678;47.994;7.854;2023-12-20T17:28:29;6.30;99.90
2453;DHT22;63678;47.994;7.854;2023-12-20T17:31:02;6.40;99.90
2453;DHT22;63678;47.994;7.854;2023-12-20T17:33:34;6.40;99.90
2453;DHT22;63678;47.994;7.854;2023-12-20T17:36:07;6.40;99.90
2453;DHT22;63678;47.994;7.854;2023-12-20T17:38:40;6.40;99.90
2453;DHT22;63678;47.994;7.854;2023-12-20T17:41:12;6.40;99.90
2453;DHT22;63678;47.994;7.854;2023-12-20T17:43:44;6.40;99.90
2453;DHT22;63678;47.994;7.854;2023-12-20T17:46:17;6.40;99.90
2453;DHT22;63678;47.994;7.854;2023-12-20T17:48:50;6.40;99.90
2453;DHT22;63678;47.994;7.854;2023-12-20T17:51:22;6.50;99.90
2453;DHT22;63678;47.994;7.854;2023-12-20T17:53:55;6.40;99.90
2453;DHT22;63678;47.994;7.854;2023-12-20T17:59:02;6.50;99.90
2453;DHT22;63678;47.994;7.854;2023-12-20T18:01:34;6.50;99.90
2453;DHT22;63678;47.994;7.854;2023-12-20T18:04:07;6.50;99.90
2453;DHT22;63678;47.994;7.854;2023-12-20T18:09:12;6.50;99.90
2453;DHT22;63678;47.994;7.854;2023-12-20T18:11:44;6.50;99.90
2453;DHT22;63678;47.994;7.854;2023-12-20T18:14:16;6.40;99.90
2453;DHT22;63678;47.994;7.854;2023-12-20T18:16:49;6.50;99.90
2453;DHT22;63678;47.994;7.854;2023-12-20T18:19:21;6.40;99.90
2453;DHT22;63678;47.994;7.854;2023-12-20T18:21:53;6.40;99.90
2453;DHT22;63678;47.994;7.854;2023-12-20T18:24:26;6.50;99.90
2453;DHT22;63678;47.994;7.854;2023-12-20T18:26:58;6.50;99.90
2453;DHT22;63678;47.994;7.854;2023-12-20T18:29:30;6.50;99.90
2453;DHT22;63678;47.994;7.854;2023-12-20T18:34:36;6.40;99.90
2453;DHT22;63678;47.994;7.854;2023-12-20T18:37:08;6.50;99.90
2453;DHT22;63678;47.994;7.854;2023-12-20T18:39:43;6.50;99.90
2453;DHT22;63678;47.994;7.854;2023-12-20T18:42:15;6.50;99.90
2453;DHT22;63678;47.994;7.854;2023-12-20T18:44:47;6.50;99.90
2453;DHT22;63678;47.994;7.854;2023-12-20T18:47:19;6.50;99.90
2453;DHT22;63678;47.994;7.854;2023-12-20T18:49:52;6.60;99.90
2453;DHT22;63678;47.994;7.854;2023-12-20T18:52:24;6.60;99.90
2453;DHT22;63678;47.994;7.854;2023-12-20T18:54:57;6.60;99.90
2453;DHT22;63678;47.994;7.854;2023-12-20T18:57:29;6.60;99.90
2453;DHT22;63678;47.994;7.854;2023-12-20T19:00:02;6.60;99.90
2453;DHT22;63678;47.994;7.854;2023-12-20T19:02:36;6.60;99.90
2453;DHT22;63678;47.994;7.854;2023-12-20T19:07:42;6.60;99.90
2453;DHT22;63678;47.994;7.854;2023-12-20T19:10:15;6.60;99.90
2453;DHT22;63678;47.994;7.854;2023-12-20T19:12:47;6.60;99.90
2453;DHT22;63678;47.994;7.854;2023-12-20T19:15:20;6.50;99.90
2453;DHT22;63678;47.994;7.854;2023-12-20T19:17:52;6.60;99.90
2453;DHT22;63678;47.994;7.854;2023-12-20T19:20:24;6.50;99.90
2453;DHT22;63678;47.994;7.854;2023-12-20T19:22:56;6.50;99.90
2453;DHT22;63678;47.994;7.854;2023-12-20T19:25:29;6.50;99.90
2453;DHT22;63678;47.994;7.854;2023-12-20T19:28:01;6.50;99.90
2453;DHT22;63678;47.994;7.854;2023-12-20T19:30:33;6.50;99.90
2453;DHT22;63678;47.994;7.854;2023-12-20T19:33:06;6.50;99.90
2453;DHT22;63678;47.994;7.854;2023-12-20T19:35:38;6.50;99.90
2453;DHT22;63678;47.994;7.854;2023-12-20T19:38:10;6.60;99.90
2453;DHT22;63678;47.994;7.854;2023-12-20T19:40:43;6.60;99.90
2453;DHT22;63678;47.994;7.854;2023-12-20T19:43:16;6.60;99.90
2453;DHT22;63678;47.994;7.854;2023-12-20T19:45:48;7.20;99.90